Time;durP1;ratioP1;P1;durP2;ratioP2;P2;SDS_P1;SDS_P2;PMS_P1;PMS_P2;Temp;Humidity;BMP_temperature;BMP_pressure;BME280_temperature;BME280_humidity;BME280_pressure;Samples;Min_cycle;Max_cycle;Signal;HPM_P1;HPM_P2
2023/09/17 00:02:06;;;;;;;0.13;0.13;;;;;;;15.87;75.25;97486.13;4945950;29;20062;-66
2023/09/17 00:04:35;;;;;;;0.25;0.25;;;;;;;15.84;74.70;97480.38;4951931;28;20043;-66
2023/09/17 00:07:03;;;;;;;0.13;0.13;;;;;;;15.75;74.93;97480.72;4956293;28;20058;-67
2023/09/17 00:09:31;;;;;;;0.03;0.03;;;;;;;15.76;74.72;97484.22;4951256;29;20047;-66
2023/09/17 00:12:00;;;;;;;0.20;0.20;;;;;;;15.67;74.88;97481.03;4951006;28;20093;-66
2023/09/17 00:14:28;;;;;;;0.03;0.03;;;;;;;15.65;74.89;97483.13;4951118;29;20071;-66
2023/09/17 00:16:55;;;;;;;0.13;0.13;;;;;;;15.75;74.69;97482.56;4948079;28;20048;-66
2023/09/17 00:19:23;;;;;;;0.10;0.10;;;;;;;15.77;73.57;97480.47;4951297;29;20086;-66
2023/09/17 00:21:51;;;;;;;0.15;0.15;;;;;;;15.60;74.07;97491.06;4948491;29;20091;-67
2023/09/17 00:24:19;;;;;;;0.10;0.10;;;;;;;15.63;73.82;97476.34;4952663;28;20051;-66
2023/09/17 00:26:47;;;;;;;0.10;0.10;;;;;;;15.22;75.67;97480.59;4951157;28;20110;-66
2023/09/17 00:29:16;;;;;;;0.20;0.20;;;;;;;15.04;77.21;97480.63;4949905;28;20497;-65
2023/09/17 00:31:44;;;;;;;0.20;0.20;;;;;;;15.11;76.78;97477.84;4940809;29;20102;-66
2023/09/17 00:34:11;;;;;;;0.15;0.15;;;;;;;15.18;76.45;97470.50;4932194;29;20043;-66
2023/09/17 00:36:39;;;;;;;0.15;0.15;;;;;;;15.18;76.36;97473.19;4951268;29;20050;-66
2023/09/17 00:39:08;;;;;;;0.15;0.15;;;;;;;15.12;76.41;97476.81;4948643;29;20413;-66
2023/09/17 00:41:36;;;;;;;0.22;0.22;;;;;;;15.17;76.21;97474.25;4946715;29;20051;-66
2023/09/17 00:44:05;;;;;;;0.30;0.30;;;;;;;15.19;76.26;97474.84;4936509;29;20052;-66
2023/09/17 00:46:34;;;;;;;0.10;0.10;;;;;;;15.38;75.75;97474.56;4950212;29;20126;-68
2023/09/17 00:49:02;;;;;;;0.25;0.25;;;;;;;15.31;76.01;97471.16;4952888;29;20039;-67
2023/09/17 00:51:30;;;;;;;0.13;0.13;;;;;;;15.22;76.07;97469.84;4943829;29;20745;-67
2023/09/17 00:53:59;;;;;;;0.20;0.20;;;;;;;14.90;77.19;97466.53;4930865;29;20050;-67
2023/09/17 00:56:27;;;;;;;0.13;0.13;;;;;;;15.02;76.72;97459.34;4954728;29;20066;-66
2023/09/17 00:58:56;;;;;;;0.10;0.10;;;;;;;15.12;76.34;97464.19;4943676;29;20098;-66
2023/09/17 01:01:25;;;;;;;0.20;0.20;;;;;;;15.02;76.69;97464.72;4940531;28;20666;-66
2023/09/17 01:03:55;;;;;;;0.13;0.13;;;;;;;14.89;76.85;97459.50;4950153;29;20039;-66
2023/09/17 01:06:23;;;;;;;0.20;0.20;;;;;;;14.86;76.74;97457.25;4956646;28;20069;-66
2023/09/17 01:08:52;;;;;;;0.15;0.15;;;;;;;14.98;76.18;97463.53;4954372;29;20496;-66
2023/09/17 01:11:21;;;;;;;0.20;0.20;;;;;;;15.03;76.18;97465.53;4949609;29;20063;-66
2023/09/17 01:13:58;;;;;;;0.30;0.30;;;;;;;15.11;75.55;97467.09;4938305;29;20487;-66
2023/09/17 01:16:28;;;;;;;0.10;0.10;;;;;;;14.95;76.36;97469.34;4939207;29;20047;-67
2023/09/17 01:18:59;;;;;;;0.20;0.20;;;;;;;14.87;77.44;97469.66;4963963;28;20070;-67
2023/09/17 01:21:32;;;;;;;0.20;0.20;;;;;;;14.81;78.20;97459.00;4936464;29;20059;-66
2023/09/17 01:24:15;;;;;;;0.03;0.03;;;;;;;14.75;78.33;97474.13;4955910;29;20086;-66
2023/09/17 01:26:46;;;;;;;0.13;0.13;;;;;;;15.00;76.91;97474.88;4954934;29;20634;-68
2023/09/17 01:29:22;;;;;;;0.10;0.10;;;;;;;14.95;77.44;97476.59;4939003;28;20055;-67
2023/09/17 01:31:50;;;;;;;0.03;0.03;;;;;;;14.94;77.43;97470.41;4951581;29;20067;-66
2023/09/17 01:34:18;;;;;;;0.03;0.03;;;;;;;14.97;77.47;97469.94;4953156;28;20046;-66
2023/09/17 01:36:46;;;;;;;0.20;0.20;;;;;;;14.82;78.32;97469.50;4950084;29;20049;-66
2023/09/17 01:39:18;;;;;;;0.13;0.13;;;;;;;14.70;78.53;97468.63;4933525;29;20057;-65
2023/09/17 01:41:46;;;;;;;0.10;0.10;;;;;;;14.48;79.74;97470.91;4949227;28;20042;-65
2023/09/17 01:44:15;;;;;;;0.13;0.13;;;;;;;14.55;79.67;97474.34;4927959;29;20047;-66
2023/09/17 01:46:43;;;;;;;0.20;0.20;;;;;;;14.65;79.01;97481.88;4943027;29;20070;-66
2023/09/17 01:49:12;;;;;;;0.10;0.10;;;;;;;14.78;78.18;97479.06;4953081;28;20047;-67
2023/09/17 01:51:40;;;;;;;0.15;0.15;;;;;;;14.88;77.82;97490.09;4947521;29;20047;-68
2023/09/17 01:54:08;;;;;;;0.20;0.20;;;;;;;14.71;78.70;97485.56;4958951;28;20602;-66
2023/09/17 01:56:37;;;;;;;0.20;0.20;;;;;;;14.75;78.89;97490.25;4929395;29;20051;-66
2023/09/17 01:59:04;;;;;;;0.10;0.10;;;;;;;14.75;78.98;97487.56;4932796;29;20062;-66
2023/09/17 02:01:33;;;;;;;0.13;0.13;;;;;;;14.75;79.16;97487.56;4944759;28;20530;-66
2023/09/17 02:04:02;;;;;;;0.15;0.15;;;;;;;14.92;77.96;97485.94;4937849;29;20512;-66
2023/09/17 02:06:30;;;;;;;0.10;0.10;;;;;;;14.94;77.53;97470.41;4929159;29;20050;-66
2023/09/17 02:08:58;;;;;;;0.20;0.20;;;;;;;14.83;77.43;97481.91;4951612;29;20110;-65
2023/09/17 02:11:25;;;;;;;0.13;0.13;;;;;;;14.86;77.46;97478.75;4954238;29;20054;-66
2023/09/17 02:13:53;;;;;;;0.13;0.13;;;;;;;14.88;76.95;97476.66;4952574;29;20403;-66
2023/09/17 02:16:21;;;;;;;0.10;0.10;;;;;;;14.92;76.76;97466.31;4936352;29;20098;-66
2023/09/17 02:18:51;;;;;;;0.03;0.03;;;;;;;14.89;76.06;97459.50;4950148;29;20039;-67
2023/09/17 02:21:19;;;;;;;0.13;0.13;;;;;;;14.78;76.32;97473.69;4951643;29;20043;-66
2023/09/17 02:23:47;;;;;;;0.13;0.13;;;;;;;14.63;76.29;97475.94;4948906;29;20043;-66
2023/09/17 02:26:15;;;;;;;0.22;0.22;;;;;;;14.55;76.25;97481.59;4950683;29;20365;-66
2023/09/17 02:28:43;;;;;;;0.20;0.20;;;;;;;14.41;76.75;97480.09;4947574;28;20051;-67
2023/09/17 02:31:11;;;;;;;0.13;0.13;;;;;;;14.32;76.79;97476.84;4932358;29;20054;-66
2023/09/17 02:33:39;;;;;;;0.13;0.13;;;;;;;14.21;77.64;97475.69;4947872;28;20039;-67
2023/09/17 02:36:08;;;;;;;0.15;0.15;;;;;;;14.36;77.65;97479.88;4953180;29;20098;-66
2023/09/17 02:38:35;;;;;;;0.20;0.20;;;;;;;14.20;78.41;97476.75;4932241;29;20151;-66
2023/09/17 02:41:03;;;;;;;0.20;0.20;;;;;;;14.20;78.48;97474.06;4947700;29;20039;-66
2023/09/17 02:43:31;;;;;;;0.20;0.20;;;;;;;14.26;77.85;97470.47;4952003;28;20067;-66
2023/09/17 02:45:59;;;;;;;0.22;0.22;;;;;;;14.30;77.37;97478.91;4933620;29;20054;-68
2023/09/17 02:48:27;;;;;;;0.20;0.20;;;;;;;14.20;77.39;97476.75;4932794;29;20130;-67
2023/09/17 02:50:55;;;;;;;0.15;0.15;;;;;;;14.03;77.79;97474.81;4935725;29;20130;-68
2023/09/17 02:53:24;;;;;;;0.17;0.17;;;;;;;14.09;77.79;97474.78;4956131;28;20049;-66
2023/09/17 02:55:51;;;;;;;0.10;0.10;;;;;;;14.16;77.25;97475.53;4952334;29;20043;-67
2023/09/17 02:58:19;;;;;;;0.25;0.25;;;;;;;14.18;77.30;97476.13;4935042;29;20657;-66
2023/09/17 03:00:47;;;;;;;0.13;0.13;;;;;;;14.30;77.19;97469.00;4927222;29;20044;-65
2023/09/17 03:03:15;;;;;;;0.10;0.10;;;;;;;14.42;76.85;97468.31;4934461;29;20051;-66
2023/09/17 03:05:45;;;;;;;0.05;0.05;;;;;;;14.27;78.02;97460.56;4947744;29;20135;-67
2023/09/17 03:08:14;;;;;;;0.17;0.17;;;;;;;14.33;77.43;97465.84;4936390;29;20043;-66
2023/09/17 03:10:57;;;;;;;0.10;0.10;;;;;;;14.51;76.56;97465.09;4935859;29;20047;-67
2023/09/17 03:13:25;;;;;;;0.10;0.10;;;;;;;14.27;77.27;97468.63;4934163;29;20122;-67
2023/09/17 03:15:56;;;;;;;0.20;0.20;;;;;;;14.18;77.42;97454.66;4934750;29;20499;-67
2023/09/17 03:18:24;;;;;;;0.22;0.22;;;;;;;14.24;78.10;97463.69;4951224;29;20098;-67
2023/09/17 03:20:53;;;;;;;0.03;0.03;;;;;;;14.27;77.88;97463.25;4934860;29;20431;-66
2023/09/17 03:23:20;;;;;;;0.10;0.10;;;;;;;14.39;77.55;97461.50;4950027;29;20418;-66
2023/09/17 03:25:49;;;;;;;0.13;0.13;;;;;;;14.33;77.66;97467.72;4934323;29;20047;-66
2023/09/17 03:28:17;;;;;;;0.13;0.13;;;;;;;14.17;78.24;97457.56;4949745;28;20047;-66
2023/09/17 03:30:46;;;;;;;0.13;0.13;;;;;;;14.32;77.82;97461.56;4931139;29;20098;-67
2023/09/17 03:33:14;;;;;;;0.25;0.25;;;;;;;14.36;77.35;97456.53;4933300;28;20049;-67
2023/09/17 03:35:46;;;;;;;0.22;0.22;;;;;;;14.40;77.51;97451.59;4934521;29;20039;-67
2023/09/17 03:38:14;;;;;;;0.25;0.25;;;;;;;14.46;76.81;97456.06;4935109;29;20112;-68
2023/09/17 03:40:42;;;;;;;0.30;0.30;;;;;;;14.60;76.15;97460.25;4933826;29;20054;-69
2023/09/17 03:43:11;;;;;;;0.00;0.00;;;;;;;14.55;76.20;97466.28;4935281;29;20138;-67
2023/09/17 03:45:40;;;;;;;0.20;0.20;;;;;;;14.47;76.14;97461.22;4934567;29;20154;-67
2023/09/17 03:48:08;;;;;;;0.10;0.10;;;;;;;14.31;76.59;97467.97;4934603;29;20433;-67
2023/09/17 03:50:39;;;;;;;0.10;0.10;;;;;;;14.18;77.18;97467.25;4949294;29;20066;-66
2023/09/17 03:53:07;;;;;;;0.13;0.13;;;;;;;14.13;77.12;97472.44;4930593;29;20050;-67
2023/09/17 03:55:36;;;;;;;0.20;0.20;;;;;;;13.94;77.95;97471.59;4933661;29;20049;-67
2023/09/17 03:58:04;;;;;;;0.30;0.30;;;;;;;14.12;77.86;97476.19;4932684;29;20159;-67
2023/09/17 04:00:42;;;;;;;0.13;0.13;;;;;;;14.24;77.59;97472.56;4946494;29;20134;-68
2023/09/17 04:03:09;;;;;;;0.13;0.13;;;;;;;14.24;78.25;97472.56;4927200;29;20058;-67
2023/09/17 04:05:37;;;;;;;0.22;0.22;;;;;;;14.19;79.12;97472.41;4950494;28;20146;-67
2023/09/17 04:08:05;;;;;;;0.30;0.13;;;;;;;14.09;80.15;97472.09;4924618;29;20086;-67
2023/09/17 04:10:33;;;;;;;0.10;0.10;;;;;;;14.13;80.24;97481.31;4948610;29;20150;-67
2023/09/17 04:13:00;;;;;;;0.10;0.10;;;;;;;14.20;79.93;97478.59;4928655;28;20063;-67
2023/09/17 04:15:28;;;;;;;0.03;0.03;;;;;;;14.05;80.70;97476.25;4951017;28;20213;-67
2023/09/17 04:17:57;;;;;;;0.20;0.20;;;;;;;14.03;80.92;97478.31;4948466;29;20043;-67
2023/09/17 04:20:27;;;;;;;0.13;0.13;;;;;;;13.99;81.04;97479.81;4932438;29;20052;-67
2023/09/17 04:22:54;;;;;;;0.20;0.20;;;;;;;14.04;80.96;97485.31;4945327;28;20054;-67
2023/09/17 04:25:22;;;;;;;0.10;0.10;;;;;;;14.02;81.16;97490.09;4928495;29;20044;-66
2023/09/17 04:27:52;;;;;;;0.13;0.13;;;;;;;14.05;80.97;97491.53;4928134;29;20039;-66
2023/09/17 04:30:23;;;;;;;0.17;0.17;;;;;;;14.09;80.84;97504.28;4937497;29;20047;-66
2023/09/17 04:32:52;;;;;;;0.03;0.03;;;;;;;14.18;80.54;97500.28;4933776;28;20051;-69
2023/09/17 04:35:22;;;;;;;0.10;0.10;;;;;;;14.27;80.21;97498.97;4958111;28;20043;-67
2023/09/17 04:37:51;;;;;;;0.13;0.13;;;;;;;14.36;79.91;97502.19;4954522;28;20057;-67
2023/09/17 04:40:28;;;;;;;0.20;0.20;;;;;;;14.42;79.56;97503.22;4938022;29;20054;-67
2023/09/17 04:43:02;;;;;;;0.20;0.20;;;;;;;14.45;79.59;97506.25;4946330;28;20065;-67
2023/09/17 04:45:34;;;;;;;0.20;0.20;;;;;;;14.47;79.48;97506.03;4945155;29;20046;-67
2023/09/17 04:48:09;;;;;;;0.30;0.30;;;;;;;14.46;79.39;97515.16;4926009;29;20139;-67
2023/09/17 04:50:42;;;;;;;0.05;0.05;;;;;;;14.57;79.02;97511.72;4936128;29;20072;-68
2023/09/17 04:53:14;;;;;;;0.13;0.13;;;;;;;14.63;78.43;97510.88;4934194;29;20051;-67
2023/09/17 04:55:44;;;;;;;0.10;0.10;;;;;;;14.62;78.47;97512.72;4931445;29;20046;-66
2023/09/17 04:58:13;;;;;;;0.13;0.13;;;;;;;14.71;77.82;97517.81;4932599;29;20067;-66
2023/09/17 05:00:44;;;;;;;0.22;0.22;;;;;;;14.54;78.49;97518.34;4951848;28;20054;-66
2023/09/17 05:03:12;;;;;;;0.15;0.15;;;;;;;14.62;78.04;97519.97;4925932;29;20106;-67
2023/09/17 05:05:41;;;;;;;0.13;0.13;;;;;;;14.61;77.86;97529.06;4943624;29;20039;-68
2023/09/17 05:08:09;;;;;;;0.20;0.20;;;;;;;14.71;78.00;97526.69;4949064;28;20138;-67
2023/09/17 05:10:38;;;;;;;0.22;0.22;;;;;;;14.71;77.90;97532.06;4933389;29;20054;-68
2023/09/17 05:13:06;;;;;;;0.15;0.15;;;;;;;14.81;77.85;97534.22;4931991;29;20043;-67
2023/09/17 05:15:36;;;;;;;0.13;0.13;;;;;;;14.77;77.91;97533.84;4950301;29;20035;-71
2023/09/17 05:18:09;;;;;;;0.15;0.15;;;;;;;14.70;78.47;97538.47;4947244;29;20043;-68
2023/09/17 05:20:44;;;;;;;0.10;0.10;;;;;;;14.70;78.90;97543.84;4933087;29;20070;-68
2023/09/17 05:23:12;;;;;;;0.20;0.20;;;;;;;14.73;78.69;97545.28;4950385;29;20043;-67
2023/09/17 05:25:40;;;;;;;0.25;0.25;;;;;;;14.71;78.80;97542.81;4937570;29;20122;-67
2023/09/17 05:28:10;;;;;;;0.13;0.13;;;;;;;14.77;78.92;97544.59;4932064;28;20090;-66
2023/09/17 05:30:38;;;;;;;0.00;0.00;;;;;;;14.75;79.06;97541.28;4949956;29;20452;-67
2023/09/17 05:33:06;;;;;;;0.22;0.22;;;;;;;14.77;78.91;97539.22;4947883;28;20134;-68
2023/09/17 05:35:36;;;;;;;0.13;0.13;;;;;;;14.85;78.89;97541.59;4937304;29;20039;-68
2023/09/17 05:38:05;;;;;;;0.10;0.10;;;;;;;15.02;78.40;97547.22;4931510;29;20039;-67
2023/09/17 05:40:34;;;;;;;0.03;0.03;;;;;;;14.90;78.67;97541.78;4936449;29;20050;-68
2023/09/17 05:43:01;;;;;;;0.15;0.15;;;;;;;14.87;79.72;97552.97;4952759;28;20093;-67
2023/09/17 05:45:31;;;;;;;0.13;0.13;;;;;;;14.94;79.54;97551.03;4954827;28;20027;-67
2023/09/17 05:48:00;;;;;;;0.03;0.03;;;;;;;15.04;80.05;97558.59;4934677;29;20126;-67
2023/09/17 05:50:27;;;;;;;0.10;0.10;;;;;;;15.12;79.64;97547.53;4952880;29;20035;-67
2023/09/17 05:52:55;;;;;;;0.22;0.22;;;;;;;15.15;80.11;97538.19;4953370;28;20043;-67
2023/09/17 05:55:25;;;;;;;0.13;0.13;;;;;;;15.26;79.25;97540.94;4952244;28;20043;-67
2023/09/17 05:57:55;;;;;;;0.20;0.20;;;;;;;15.41;79.03;97538.69;4935328;29;20043;-68
2023/09/17 06:00:23;;;;;;;0.13;0.13;;;;;;;15.51;78.91;97535.44;4933748;29;20057;-68
2023/09/17 06:02:51;;;;;;;0.03;0.03;;;;;;;15.55;78.35;97525.91;4953123;28;20098;-67
2023/09/17 06:05:19;;;;;;;0.20;0.20;;;;;;;15.53;78.31;97537.91;4948846;28;20035;-69
2023/09/17 06:07:46;;;;;;;0.22;0.22;;;;;;;15.54;78.71;97529.66;4949227;29;20047;-68
2023/09/17 06:10:16;;;;;;;0.10;0.10;;;;;;;15.64;78.03;97537.19;4934854;29;20066;-67
2023/09/17 06:12:45;;;;;;;0.15;0.15;;;;;;;15.67;78.13;97542.13;4953524;28;20047;-67
2023/09/17 06:15:12;;;;;;;0.13;0.13;;;;;;;15.74;78.10;97532.06;4951251;29;20039;-66
2023/09/17 06:17:41;;;;;;;0.10;0.10;;;;;;;15.76;78.69;97525.41;4932190;29;20047;-67
2023/09/17 06:20:09;;;;;;;0.17;0.17;;;;;;;15.80;79.14;97528.44;4945079;29;20111;-67
2023/09/17 06:22:37;;;;;;;0.03;0.03;;;;;;;15.83;78.63;97525.31;4934694;29;20058;-67
2023/09/17 06:25:06;;;;;;;0.20;0.20;;;;;;;15.93;78.64;97520.19;4950528;29;20043;-67
2023/09/17 06:27:34;;;;;;;0.10;0.10;;;;;;;16.06;77.80;97522.69;4938533;29;20047;-69
2023/09/17 06:30:05;;;;;;;0.10;0.10;;;;;;;16.21;78.12;97524.91;4947777;29;20051;-69
2023/09/17 06:32:33;;;;;;;0.20;0.20;;;;;;;16.26;77.77;97535.81;4930474;28;20050;-72
2023/09/17 06:35:01;;;;;;;0.03;0.03;;;;;;;16.34;77.41;97535.47;4930430;29;20423;-69
2023/09/17 06:37:29;;;;;;;0.10;0.10;;;;;;;16.29;76.65;97543.44;4931069;29;20062;-69
2023/09/17 06:39:58;;;;;;;0.15;0.15;;;;;;;16.33;76.65;97544.59;4934684;28;20043;-69
2023/09/17 06:42:26;;;;;;;0.10;0.10;;;;;;;16.34;76.72;97540.03;4935153;29;20047;-69
2023/09/17 06:44:54;;;;;;;0.10;0.10;;;;;;;16.36;77.08;97541.47;4957145;28;20066;-69
2023/09/17 06:47:23;;;;;;;0.15;0.15;;;;;;;16.48;76.46;97534.22;4945487;29;20143;-69
2023/09/17 06:49:51;;;;;;;0.03;0.03;;;;;;;16.53;75.71;97534.31;4952723;28;20079;-69
2023/09/17 06:52:18;;;;;;;0.10;0.10;;;;;;;16.54;76.13;97537.84;4951820;29;20122;-69
2023/09/17 06:54:50;;;;;;;0.13;0.13;;;;;;;16.55;76.13;97531.41;4945189;28;20048;-69
2023/09/17 06:57:17;;;;;;;0.13;0.13;;;;;;;16.60;76.00;97528.84;4963051;28;20031;-70
2023/09/17 06:59:46;;;;;;;0.03;0.03;;;;;;;16.63;75.95;97527.56;4944135;28;20496;-69
2023/09/17 07:02:21;;;;;;;0.43;0.43;;;;;;;16.73;75.66;97536.69;5099150;27;20410;-70
2023/09/17 07:04:49;;;;;;;0.40;0.40;;;;;;;16.78;75.68;97534.13;5096999;28;20032;-70
2023/09/17 07:07:17;;;;;;;0.40;0.40;;;;;;;16.80;75.54;97540.09;5102358;28;20044;-70
2023/09/17 07:09:45;;;;;;;0.40;0.40;;;;;;;16.88;75.03;97547.00;5076322;28;20060;-70
2023/09/17 07:12:12;;;;;;;0.32;0.32;;;;;;;16.97;75.06;97548.28;5079810;28;20072;-71
2023/09/17 07:14:41;;;;;;;0.45;0.45;;;;;;;17.02;74.66;97553.81;5079929;28;20052;-69
2023/09/17 07:17:08;;;;;;;0.10;0.00;;;;;;;17.09;74.51;97549.09;5075727;28;20451;-69
2023/09/17 07:19:38;;;;;;;0.45;0.45;;;;;;;17.16;74.22;97557.88;5080009;28;20032;-69
2023/09/17 07:22:11;;;;;;;0.57;0.57;;;;;;;17.22;74.23;97554.25;5079546;28;20047;-69
2023/09/17 07:24:40;;;;;;;0.10;0.10;;;;;;;17.37;73.99;97558.28;5078205;28;20474;-69
2023/09/17 07:27:08;;;;;;;0.50;0.50;;;;;;;17.36;73.77;97549.38;5074426;28;20036;-69
2023/09/17 07:29:35;;;;;;;0.25;0.25;;;;;;;17.47;73.48;97553.91;5084849;28;20109;-72
2023/09/17 07:32:03;;;;;;;0.50;0.50;;;;;;;17.56;73.23;97547.09;5080120;28;20045;-71
2023/09/17 07:34:31;;;;;;;0.45;0.45;;;;;;;17.67;72.80;97552.72;5083357;28;20041;-70
2023/09/17 07:37:00;;;;;;;0.50;0.50;;;;;;;17.79;72.96;97559.72;5080949;28;20051;-70
2023/09/17 07:39:28;;;;;;;0.40;0.40;;;;;;;17.93;72.54;97552.97;5077675;28;20051;-70
2023/09/17 07:41:56;;;;;;;0.52;0.52;;;;;;;18.04;72.12;97550.44;5085827;28;20028;-70
2023/09/17 07:44:24;;;;;;;0.38;0.38;;;;;;;18.15;72.04;97553.09;5090474;28;20052;-70
2023/09/17 07:46:52;;;;;;;0.40;0.40;;;;;;;18.28;71.43;97555.44;5076010;28;20503;-71
2023/09/17 07:49:24;;;;;;;0.50;0.50;;;;;;;18.39;71.50;97553.72;5085952;28;20048;-71
2023/09/17 07:51:52;;;;;;;;;;;;;;;18.48;70.48;97554.97;5082953;28;20070;-70
2023/09/17 07:54:21;;;;;;;0.43;0.43;;;;;;;18.56;70.44;97554.56;5069302;28;19920;-70
2023/09/17 07:56:49;;;;;;;0.13;0.13;;;;;;;18.65;70.34;97555.00;5081650;28;20412;-70
2023/09/17 07:59:16;;;;;;;0.40;0.40;;;;;;;18.76;70.02;97553.28;5084716;28;20048;-70
2023/09/17 08:01:47;;;;;;;0.35;0.35;;;;;;;18.86;69.35;97554.25;5079929;28;20115;-70
2023/09/17 08:04:15;;;;;;;0.60;0.60;;;;;;;18.96;69.49;97554.38;5071523;28;20083;-70
2023/09/17 08:06:43;;;;;;;0.10;0.10;;;;;;;19.06;68.54;97557.22;5081813;28;20545;-71
2023/09/17 08:09:11;;;;;;;0.40;0.40;;;;;;;19.19;68.96;97556.06;5082534;28;20052;-70
2023/09/17 08:11:40;;;;;;;0.40;0.40;;;;;;;19.26;68.05;97559.41;5075597;28;20068;-70
2023/09/17 08:14:07;;;;;;;0.50;0.50;;;;;;;19.34;67.88;97544.59;5070878;28;20044;-70
2023/09/17 08:16:35;;;;;;;0.10;0.10;;;;;;;19.39;67.30;97559.03;5065314;28;20674;-70
2023/09/17 08:19:03;;;;;;;0.30;0.30;;;;;;;19.52;67.49;97554.34;5064528;28;20059;-71
2023/09/17 08:21:31;;;;;;;0.28;0.28;;;;;;;19.59;66.44;97557.66;5067771;28;20111;-70
2023/09/17 08:24:00;;;;;;;0.60;0.60;;;;;;;19.63;65.63;97550.66;5069998;28;20066;-70
2023/09/17 08:26:28;;;;;;;0.32;0.32;;;;;;;19.74;65.05;97549.69;5066231;28;20119;-70
2023/09/17 08:28:58;;;;;;;0.30;0.30;;;;;;;19.84;65.15;97554.41;5062830;28;20052;-70
2023/09/17 08:31:26;;;;;;;0.40;0.40;;;;;;;19.97;64.38;97543.16;5060600;28;20033;-70
2023/09/17 08:33:53;;;;;;;0.60;0.60;;;;;;;20.07;64.25;97544.09;5068084;28;20044;-70
2023/09/17 08:36:22;;;;;;;0.30;0.30;;;;;;;20.21;61.65;97538.25;5065242;28;20033;-70
2023/09/17 08:38:50;;;;;;;0.40;0.40;;;;;;;20.32;61.73;97537.28;5067335;28;20055;-70
2023/09/17 08:41:18;;;;;;;0.30;0.30;;;;;;;20.36;61.41;97541.13;5064988;28;20056;-70
2023/09/17 08:43:46;;;;;;;0.30;0.30;;;;;;;20.34;61.48;97541.38;5067466;28;20068;-70
2023/09/17 08:46:16;;;;;;;0.50;0.50;;;;;;;20.41;61.80;97541.16;5064695;28;20052;-70
2023/09/17 08:48:44;;;;;;;0.05;0.05;;;;;;;20.49;61.06;97533.38;5070517;28;20403;-70
2023/09/17 08:51:14;;;;;;;0.00;0.00;;;;;;;20.61;61.11;97535.09;5069636;28;20431;-70
2023/09/17 08:53:49;;;;;;;0.43;0.43;;;;;;;20.64;60.75;97540.00;5070268;28;20055;-70
2023/09/17 08:56:18;;;;;;;0.30;0.30;;;;;;;20.70;60.76;97542.47;5053206;28;20041;-71
2023/09/17 08:58:51;;;;;;;0.30;0.30;;;;;;;20.80;60.92;97539.00;5060775;28;20047;-70
2023/09/17 09:01:21;;;;;;;0.30;0.30;;;;;;;20.88;60.83;97538.53;5063574;28;20044;-70
2023/09/17 09:03:50;;;;;;;0.30;0.30;;;;;;;20.96;60.40;97531.81;5067776;28;20040;-70
2023/09/17 09:06:19;;;;;;;0.20;0.20;;;;;;;21.03;60.09;97538.63;5066561;28;20076;-70
2023/09/17 09:08:48;;;;;;;0.30;0.30;;;;;;;21.11;59.96;97543.56;5057804;28;20032;-70
2023/09/17 09:11:16;;;;;;;0.30;0.30;;;;;;;21.16;59.83;97540.88;5063177;28;20049;-70
2023/09/17 09:13:44;;;;;;;0.25;0.25;;;;;;;21.28;59.72;97532.56;5070824;28;20683;-70
2023/09/17 09:16:12;;;;;;;0.43;0.43;;;;;;;21.33;58.73;97548.03;5066396;28;20048;-70
2023/09/17 09:18:41;;;;;;;0.40;0.40;;;;;;;21.38;58.55;97540.75;5060861;28;20116;-70
2023/09/17 09:21:10;;;;;;;0.30;0.30;;;;;;;21.48;58.76;97542.69;5061011;28;20036;-70
2023/09/17 09:23:38;;;;;;;0.00;0.00;;;;;;;21.54;58.41;97544.31;5059561;28;20435;-70
2023/09/17 09:26:06;;;;;;;0.28;0.28;;;;;;;21.63;58.32;97547.34;5065868;28;20037;-70
2023/09/17 09:28:34;;;;;;;0.28;0.28;;;;;;;21.69;57.89;97541.69;5069785;28;20051;-70
2023/09/17 09:31:02;;;;;;;0.35;0.35;;;;;;;21.82;57.97;97534.88;5066203;28;20051;-70
2023/09/17 09:33:31;;;;;;;0.20;0.20;;;;;;;21.81;58.11;97528.63;5064054;28;20040;-70
2023/09/17 09:36:01;;;;;;;0.30;0.30;;;;;;;21.85;57.90;97526.22;5066792;28;20074;-70
2023/09/17 09:38:29;;;;;;;0.30;0.30;;;;;;;21.96;58.53;97527.88;5066503;28;20381;-70
2023/09/17 09:40:58;;;;;;;0.52;0.52;;;;;;;22.11;57.97;97525.22;5068338;28;20124;-70
2023/09/17 09:43:30;;;;;;;0.30;0.30;;;;;;;22.19;57.90;97530.13;5070410;28;20130;-70
2023/09/17 09:46:02;;;;;;;0.30;0.30;;;;;;;22.34;57.80;97534.72;5063201;28;20037;-70
2023/09/17 09:48:30;;;;;;;0.20;0.20;;;;;;;22.33;57.42;97533.91;5063931;28;20063;-70
2023/09/17 09:50:58;;;;;;;0.20;0.20;;;;;;;22.44;57.12;97533.91;5062962;28;20340;-70
2023/09/17 09:53:27;;;;;;;0.28;0.28;;;;;;;22.48;57.38;97529.56;5068432;28;20041;-70
2023/09/17 09:55:56;;;;;;;0.30;0.30;;;;;;;22.67;56.73;97522.47;5060278;28;20037;-70
2023/09/17 09:58:24;;;;;;;0.30;0.30;;;;;;;22.74;56.77;97533.91;5057442;28;20128;-70
2023/09/17 10:00:52;;;;;;;0.40;0.40;;;;;;;22.84;56.08;97527.69;5070873;28;20500;-70
2023/09/17 10:03:21;;;;;;;0.30;0.30;;;;;;;22.96;55.49;97531.72;5063180;28;20515;-71
2023/09/17 10:05:49;;;;;;;0.30;0.30;;;;;;;23.01;55.41;97526.28;5060926;28;20045;-70
2023/09/17 10:08:18;;;;;;;0.30;0.30;;;;;;;23.04;55.10;97533.09;5071578;28;20055;-70
2023/09/17 10:10:48;;;;;;;0.25;0.25;;;;;;;23.21;54.22;97530.03;5064741;28;20051;-70
2023/09/17 10:13:17;;;;;;;0.00;0.00;;;;;;;23.37;54.04;97520.69;5063386;28;20484;-70
2023/09/17 10:15:46;;;;;;;0.30;0.30;;;;;;;23.49;53.70;97521.19;5052569;28;20080;-70
2023/09/17 10:18:14;;;;;;;0.32;0.32;;;;;;;23.56;53.78;97520.94;5051590;28;20381;-70
2023/09/17 10:20:44;;;;;;;0.30;0.30;;;;;;;23.64;52.84;97512.16;5064117;28;20476;-70
2023/09/17 10:23:14;;;;;;;0.22;0.22;;;;;;;23.82;51.90;97510.69;5067856;28;20045;-70
2023/09/17 10:25:42;;;;;;;0.30;0.30;;;;;;;24.11;51.29;97519.78;5067408;28;20044;-70
2023/09/17 10:28:11;;;;;;;0.20;0.20;;;;;;;24.22;50.92;97513.19;5058403;28;20512;-70
2023/09/17 10:30:40;;;;;;;0.20;0.20;;;;;;;24.38;50.05;97513.91;5059497;28;20064;-70
2023/09/17 10:33:09;;;;;;;0.00;0.00;;;;;;;24.61;49.74;97507.66;5063034;28;20707;-70
2023/09/17 10:35:38;;;;;;;0.20;0.20;;;;;;;24.86;48.75;97504.72;5056623;28;20047;-70
2023/09/17 10:38:07;;;;;;;0.10;0.10;;;;;;;25.04;47.65;97511.38;5058190;28;20075;-70
2023/09/17 10:40:35;;;;;;;0.30;0.30;;;;;;;25.15;47.09;97504.69;5068197;28;20040;-70
2023/09/17 10:43:05;;;;;;;0.10;0.10;;;;;;;25.50;46.38;97508.94;5068134;28;20090;-70
2023/09/17 10:45:35;;;;;;;0.30;0.30;;;;;;;25.85;45.35;97504.13;5069256;28;20567;-70
2023/09/17 10:48:03;;;;;;;0.30;0.30;;;;;;;26.12;44.24;97498.78;5063105;28;20714;-70
2023/09/17 10:50:34;;;;;;;0.10;0.10;;;;;;;26.13;45.10;97505.91;5067836;28;20041;-70
2023/09/17 10:53:02;;;;;;;0.10;0.10;;;;;;;26.64;43.00;97496.88;5065817;28;20510;-70
2023/09/17 10:55:37;;;;;;;0.25;0.25;;;;;;;26.81;43.02;97499.03;5058204;28;20041;-70
2023/09/17 10:58:07;;;;;;;0.13;0.13;;;;;;;26.92;42.12;97495.03;5057984;28;20045;-70
2023/09/17 11:00:39;;;;;;;0.22;0.22;;;;;;;26.82;41.27;97503.41;5058387;28;20087;-70
2023/09/17 11:03:07;;;;;;;0.15;0.15;;;;;;;26.83;41.65;97500.34;5065093;28;20463;-70
2023/09/17 11:05:35;;;;;;;0.20;0.20;;;;;;;26.93;40.39;97496.66;5062157;28;20041;-70
2023/09/17 11:08:05;;;;;;;0.20;0.20;;;;;;;26.97;40.54;97495.75;5060393;28;20119;-70
2023/09/17 11:10:33;;;;;;;0.10;0.10;;;;;;;26.92;40.40;97495.03;5066601;28;20481;-70
2023/09/17 11:13:01;;;;;;;0.15;0.15;;;;;;;26.89;40.46;97504.63;5054168;28;20480;-70
2023/09/17 11:15:30;;;;;;;0.00;0.00;;;;;;;26.93;40.45;97502.13;5056327;28;20447;-70
2023/09/17 11:18:01;;;;;;;0.17;0.17;;;;;;;26.90;40.06;97505.44;5057722;28;20044;-71
2023/09/17 11:20:29;;;;;;;0.20;0.20;;;;;;;27.01;39.82;97506.91;5064727;28;20047;-70
2023/09/17 11:22:57;;;;;;;0.20;0.20;;;;;;;27.07;39.24;97504.91;5060393;28;20063;-70
2023/09/17 11:25:35;;;;;;;0.20;0.20;;;;;;;26.99;39.04;97503.69;5055167;28;20045;-70
2023/09/17 11:28:09;;;;;;;;;;;;;;;27.16;38.42;97497.59;5059673;28;20099;-70
2023/09/17 11:30:58;;;;;;;0.10;0.10;;;;;;;27.54;37.17;97492.69;5058640;28;19932;-70
2023/09/17 11:33:28;;;;;;;0.32;0.32;;;;;;;27.52;36.43;97493.00;5067570;28;20086;-70
2023/09/17 11:35:56;;;;;;;0.20;0.20;;;;;;;27.41;36.94;97489.66;5064553;28;20037;-70
2023/09/17 11:38:24;;;;;;;0.10;0.10;;;;;;;27.19;37.33;97500.53;5060036;28;20037;-70
2023/09/17 11:41:02;;;;;;;0.10;0.10;;;;;;;27.17;37.55;97497.28;5056626;28;20403;-70
2023/09/17 11:43:30;;;;;;;0.10;0.10;;;;;;;27.34;37.24;97492.00;5061087;28;20040;-70